Terminal Aerodrome Forecast
Issued by NWS

Home | Current Version | Previous Version | Text Only | Print | Product List | Glossary Off
Versions: 1 2 3 4 5 6 7 8 9 10 11 12 13 14 15 16 17 18 19 20 21

000
FTUS43 KMPX 261313 AAA
TAFRWF
TAF AMD
KRWF 261313Z 2613/2712 29017G25KT P6SM SCT120
     FM261500 30014G22KT P6SM SCT150
     FM270200 32008KT P6SM SCT100
     FM270900 VRB03KT P6SM BKN100=

USA.gov is the U.S. government's official web portal to all federal, state and local government web resources and services.